FIMR

Sir Charles Gaetan Duval Airport

Port Mathurin, Mauritius
METAR FIMR 171800Z 06010KT 9999 FEW020 23/19 Q1019
Observed Flight Rules
Oct-17 @ 18:00 UTC (7 hours ago) Visual Flight Rules
Wind Visibility Clouds
60° at 10 knots 10,000+ meters
  • Few at 2,000' AGL
Temperatures Readings
Current 23°C / 73°F
Dewpoint 19°C / 66°F
Humidity 78%
Altimeter 30.09" Hg
Pressure 1019 hPa
Elevation 31
METAR FIMR 171800Z 06010KT 9999 FEW020 23/19 Q1019
Observed Flight Rules
Oct-17 @ 18:00 UTC
(7 hours ago)
VFR
Wind Visibility
60° at 10 knots 10,000+ meters
Clouds
  • Few at 2,000' AGL
Temperature Dewpoint
23°C / 73°F 19°C / 66°F
Humidity Altimeter Pressure
78% 30.09" Hg 1019 hPa